Time;durP1;ratioP1;P1;durP2;ratioP2;P2;SDS_P1;SDS_P2;PMS_P1;PMS_P2;Temp;Humidity;BMP_temperature;BMP_pressure;BME280_temperature;BME280_humidity;BME280_pressure;Samples;Min_cycle;Max_cycle;Signal;HPM_P1;HPM_P2
2022/12/02 00:00:00;;;;;;;48.00;31.50;;;2.30;1.00;;;;;;6217545;28;20246;-53
2022/12/02 00:03:03;;;;;;;47.07;31.03;;;2.50;1.00;;;;;;6234613;28;20234;-54
2022/12/02 00:06:14;;;;;;;43.17;28.83;;;2.50;1.00;;;;;;6234798;28;20258;-55
2022/12/02 00:09:29;;;;;;;52.20;32.00;;;2.60;1.00;;;;;;6239466;28;20237;-54
2022/12/02 00:12:33;;;;;;;45.07;30.77;;;2.40;1.00;;;;;;6241621;28;20488;-55
2022/12/02 00:15:42;;;;;;;52.00;31.73;;;2.60;1.00;;;;;;6235496;28;20753;-54
2022/12/02 00:18:45;;;;;;;47.13;30.97;;;2.50;1.00;;;;;;6225128;28;20232;-55
2022/12/02 00:21:50;;;;;;;47.43;30.43;;;2.50;1.00;;;;;;6214331;28;20246;-55
2022/12/02 00:24:53;;;;;;;51.97;32.00;;;2.50;1.00;;;;;;6211973;28;20701;-58
2022/12/02 00:27:56;;;;;;;51.17;31.27;;;2.40;1.00;;;;;;6209834;28;20409;-55
2022/12/02 00:30:59;;;;;;;50.37;32.87;;;2.60;1.00;;;;;;6220343;28;20733;-54
2022/12/02 00:34:03;;;;;;;48.30;31.50;;;2.40;1.00;;;;;;6234939;28;20237;-54
2022/12/02 00:37:07;;;;;;;52.97;32.33;;;2.50;1.00;;;;;;6225926;28;20752;-54
2022/12/02 00:40:12;;;;;;;47.33;31.97;;;2.30;1.00;;;;;;6235748;28;20242;-55
2022/12/02 00:46:36;;;;;;;48.77;31.33;;;2.40;1.00;;;;;;6209851;28;20247;-54
2022/12/02 00:49:39;;;;;;;45.90;31.33;;;2.40;1.00;;;;;;6209968;28;20243;-54
2022/12/02 00:52:43;;;;;;;50.07;32.73;;;2.40;1.00;;;;;;6210186;28;20235;-53
2022/12/02 00:55:46;;;;;;;50.10;32.17;;;2.40;1.00;;;;;;6195430;28;20236;-53
2022/12/02 00:58:49;;;;;;;51.07;31.20;;;2.60;1.00;;;;;;6184602;28;20239;-55
2022/12/02 01:01:52;;;;;;;48.40;30.87;;;2.40;1.00;;;;;;6207468;28;20246;-54
2022/12/02 01:04:55;;;;;;;49.23;31.23;;;2.50;1.00;;;;;;6202152;28;20859;-53
2022/12/02 01:07:59;;;;;;;53.97;33.23;;;2.40;1.00;;;;;;6203255;28;20247;-55
2022/12/02 01:11:03;;;;;;;50.47;32.73;;;2.60;1.00;;;;;;6223316;28;20389;-55
2022/12/02 01:14:06;;;;;;;51.43;32.97;;;2.80;1.00;;;;;;6212399;28;20402;-55
2022/12/02 01:17:09;;;;;;;49.63;30.73;;;2.40;1.00;;;;;;6218015;28;20231;-54
2022/12/02 01:20:13;;;;;;;43.80;30.00;;;2.60;1.00;;;;;;6218510;28;20678;-55
2022/12/02 01:23:17;;;;;;;54.10;31.53;;;2.50;1.00;;;;;;6193449;28;20228;-52
2022/12/02 01:26:21;;;;;;;45.80;29.60;;;2.40;1.00;;;;;;6189029;28;20642;-54
2022/12/02 01:29:23;;;;;;;51.80;32.07;;;2.60;1.00;;;;;;6189264;28;20240;-54
2022/12/02 01:32:26;;;;;;;50.80;32.47;;;2.40;1.00;;;;;;6189217;28;20236;-53
2022/12/02 01:35:29;;;;;;;51.03;31.90;;;2.30;1.00;;;;;;6189154;28;20236;-55
2022/12/02 01:38:34;;;;;;;52.40;32.10;;;2.20;1.00;;;;;;6205399;28;20243;-54
2022/12/02 01:41:37;;;;;;;50.17;31.23;;;2.20;1.00;;;;;;6209109;28;20242;-54
2022/12/02 01:44:39;;;;;;;51.03;31.90;;;2.30;1.00;;;;;;6212560;28;20310;-55
2022/12/02 01:47:42;;;;;;;45.60;30.27;;;2.30;1.00;;;;;;6211990;28;20239;-55
2022/12/02 01:50:47;;;;;;;51.17;31.80;;;2.50;1.00;;;;;;6198785;28;20235;-54
2022/12/02 01:53:51;;;;;;;47.20;31.63;;;2.50;1.00;;;;;;6188751;28;20243;-54
2022/12/02 01:56:54;;;;;;;54.13;32.17;;;2.30;1.00;;;;;;6188419;28;20240;-55
2022/12/02 01:59:57;;;;;;;46.43;30.67;;;2.40;1.00;;;;;;6189151;28;20263;-55
2022/12/02 02:03:00;;;;;;;50.37;32.47;;;2.40;1.00;;;;;;6187971;28;20247;-53
2022/12/02 02:06:03;;;;;;;52.77;33.10;;;2.40;1.00;;;;;;6188167;28;20649;-53
2022/12/02 02:09:08;;;;;;;46.77;30.67;;;2.70;1.00;;;;;;6207457;28;20230;-54
2022/12/02 02:12:10;;;;;;;49.03;30.57;;;2.40;1.00;;;;;;6219194;28;20243;-55
2022/12/02 02:15:15;;;;;;;48.33;31.20;;;2.40;1.00;;;;;;6216904;28;20625;-55
2022/12/02 02:18:18;;;;;;;45.43;30.37;;;2.50;1.00;;;;;;6199656;28;20251;-54
2022/12/02 02:21:25;;;;;;;48.40;31.17;;;2.40;1.00;;;;;;6188487;28;20316;-54
2022/12/02 02:24:29;;;;;;;46.27;30.50;;;2.50;1.00;;;;;;6187646;28;20250;-53
2022/12/02 02:27:32;;;;;;;46.60;30.97;;;2.30;1.00;;;;;;6198085;28;20235;-54
2022/12/02 02:30:36;;;;;;;50.17;32.77;;;2.40;1.00;;;;;;6212625;28;20321;-54
2022/12/02 02:33:40;;;;;;;45.20;30.13;;;2.40;1.00;;;;;;6212169;28;20238;-54
2022/12/02 02:36:43;;;;;;;48.10;30.50;;;2.50;1.00;;;;;;6211845;28;20454;-55
2022/12/02 02:39:47;;;;;;;51.27;31.50;;;2.30;1.00;;;;;;6212803;28;20247;-54
2022/12/02 02:42:54;;;;;;;49.70;30.70;;;2.20;1.00;;;;;;6218166;28;20232;-55
2022/12/02 02:45:58;;;;;;;47.53;30.17;;;2.40;1.00;;;;;;6208562;28;20361;-53
2022/12/02 02:49:01;;;;;;;47.53;30.87;;;2.30;1.00;;;;;;6211542;28;20334;-55
2022/12/02 02:52:04;;;;;;;50.53;31.57;;;2.20;1.00;;;;;;6198969;28;20244;-54
2022/12/02 02:55:15;;;;;;;45.97;28.80;;;2.40;1.00;;;;;;6198762;28;20242;-55
2022/12/02 02:58:20;;;;;;;43.83;29.30;;;2.40;1.00;;;;;;6212864;28;20243;-54
2022/12/02 03:01:27;;;;;;;46.33;29.63;;;2.20;1.00;;;;;;6219334;28;20238;-53
2022/12/02 03:04:30;;;;;;;44.50;30.17;;;2.30;1.00;;;;;;6236253;28;20235;-55
2022/12/02 03:07:34;;;;;;;43.87;29.17;;;2.20;1.00;;;;;;6235417;28;20269;-54
2022/12/02 03:10:40;;;;;;;50.27;30.50;;;2.50;1.00;;;;;;6233656;28;20233;-54
2022/12/02 03:13:45;;;;;;;45.47;28.60;;;2.20;1.00;;;;;;6237319;28;20748;-54
2022/12/02 03:16:50;;;;;;;47.63;30.07;;;2.50;1.00;;;;;;6231136;28;20262;-53
2022/12/02 03:19:53;;;;;;;47.73;29.30;;;2.10;1.00;;;;;;6211551;28;20262;-54
2022/12/02 03:22:56;;;;;;;41.50;29.07;;;2.40;1.00;;;;;;6226960;28;20237;-53
2022/12/02 03:26:02;;;;;;;52.10;32.83;;;2.30;1.00;;;;;;6234794;28;20625;-55
2022/12/02 03:29:06;;;;;;;47.67;31.07;;;2.30;1.00;;;;;;6235461;28;20242;-55
2022/12/02 03:32:09;;;;;;;46.77;28.80;;;2.30;1.00;;;;;;6234444;28;20234;-54
2022/12/02 03:35:13;;;;;;;48.03;30.90;;;2.30;1.00;;;;;;6229677;28;20234;-52
2022/12/02 03:38:16;;;;;;;42.93;27.83;;;2.30;1.00;;;;;;6235189;28;20763;-54
2022/12/02 03:41:21;;;;;;;40.70;27.70;;;2.30;1.00;;;;;;6235109;28;20456;-54
2022/12/02 03:44:24;;;;;;;41.43;27.73;;;2.40;1.00;;;;;;6239286;28;20230;-53
2022/12/02 03:47:28;;;;;;;43.00;29.47;;;2.10;1.00;;;;;;6237807;28;20235;-53
2022/12/02 03:50:31;;;;;;;42.07;27.77;;;2.40;1.00;;;;;;6235284;28;20226;-54
2022/12/02 03:53:35;;;;;;;42.53;27.93;;;2.50;1.00;;;;;;6235892;28;20269;-55
2022/12/02 03:56:42;;;;;;;39.27;27.10;;;2.20;1.00;;;;;;6235565;28;20238;-54
2022/12/02 03:59:44;;;;;;;39.33;27.40;;;2.10;1.00;;;;;;6224112;28;20609;-54
2022/12/02 04:02:47;;;;;;;39.83;27.90;;;2.40;1.00;;;;;;6210877;28;20231;-54
2022/12/02 04:05:50;;;;;;;39.67;27.07;;;2.20;1.00;;;;;;6210067;28;20245;-54
2022/12/02 04:08:53;;;;;;;39.10;25.77;;;2.40;1.00;;;;;;6228942;28;20234;-53
2022/12/02 04:11:58;;;;;;;38.90;26.43;;;2.30;1.00;;;;;;6238923;28;20235;-55
2022/12/02 04:15:01;;;;;;;38.43;27.17;;;2.40;1.00;;;;;;6234636;28;20729;-55
2022/12/02 04:18:04;;;;;;;38.60;25.33;;;2.30;1.00;;;;;;6234001;28;20238;-55
2022/12/02 04:21:06;;;;;;;37.50;25.57;;;2.20;1.00;;;;;;6223370;28;20262;-54
2022/12/02 04:24:09;;;;;;;33.40;24.40;;;2.30;1.00;;;;;;6209365;28;20761;-55
2022/12/02 04:27:14;;;;;;;34.13;23.40;;;2.40;1.00;;;;;;6209653;28;20270;-54
2022/12/02 04:30:17;;;;;;;33.70;24.43;;;2.40;1.00;;;;;;6209605;28;20239;-55
2022/12/02 04:33:20;;;;;;;38.93;25.00;;;2.30;1.00;;;;;;6220658;28;20257;-55
2022/12/02 04:36:24;;;;;;;36.23;25.20;;;2.20;1.00;;;;;;6232701;28;20698;-54
2022/12/02 04:39:27;;;;;;;35.80;25.13;;;2.20;1.00;;;;;;6234713;28;20242;-55
2022/12/02 04:42:31;;;;;;;35.00;25.33;;;2.30;1.00;;;;;;6239170;28;20238;-53
2022/12/02 04:45:34;;;;;;;33.97;24.43;;;2.30;1.00;;;;;;6235597;28;20227;-54
2022/12/02 04:48:37;;;;;;;34.33;23.63;;;2.30;1.00;;;;;;6233416;28;20612;-55
2022/12/02 04:51:40;;;;;;;34.27;24.10;;;2.30;1.00;;;;;;6251424;28;20225;-53
2022/12/02 04:54:43;;;;;;;33.47;23.90;;;2.30;1.00;;;;;;6235336;28;20612;-54
2022/12/02 04:57:47;;;;;;;33.70;24.50;;;2.20;1.00;;;;;;6237402;28;20242;-53
2022/12/02 05:00:50;;;;;;;33.97;23.80;;;2.40;1.00;;;;;;6241736;28;20260;-55
2022/12/02 05:03:53;;;;;;;33.30;24.17;;;2.40;1.00;;;;;;6237273;28;20740;-55
2022/12/02 05:06:56;;;;;;;29.33;22.83;;;2.40;1.00;;;;;;6231532;28;20254;-54
2022/12/02 05:09:59;;;;;;;33.10;23.83;;;2.60;1.00;;;;;;6237532;28;20894;-53
2022/12/02 05:13:03;;;;;;;29.67;22.73;;;2.30;1.00;;;;;;6240153;28;20466;-52
2022/12/02 05:16:07;;;;;;;33.53;22.97;;;2.30;1.00;;;;;;6236717;28;20250;-55
2022/12/02 05:19:10;;;;;;;29.53;21.93;;;2.30;1.00;;;;;;6251259;28;20245;-55
2022/12/02 05:22:13;;;;;;;29.80;22.90;;;2.30;1.00;;;;;;6234303;28;20242;-55
2022/12/02 05:25:16;;;;;;;31.30;22.83;;;2.30;1.00;;;;;;6242449;28;20332;-55
2022/12/02 05:28:20;;;;;;;29.90;22.43;;;2.40;1.00;;;;;;6235981;28;20227;-53
2022/12/02 05:31:23;;;;;;;29.33;21.33;;;2.60;1.00;;;;;;6239345;28;20238;-55
2022/12/02 05:34:26;;;;;;;28.67;21.57;;;2.30;1.00;;;;;;6229293;28;20227;-55
2022/12/02 05:37:29;;;;;;;28.67;20.87;;;2.20;1.00;;;;;;6236771;28;20231;-56
2022/12/02 05:40:32;;;;;;;29.67;21.27;;;2.40;1.00;;;;;;6241880;28;20234;-54
2022/12/02 05:43:38;;;;;;;28.57;21.07;;;2.30;1.00;;;;;;6237866;28;20310;-54
2022/12/02 05:46:41;;;;;;;27.27;20.93;;;2.50;1.00;;;;;;6230612;28;20315;-55
2022/12/02 05:49:46;;;;;;;27.67;21.40;;;2.40;1.00;;;;;;6220498;28;20235;-54
2022/12/02 05:52:49;;;;;;;28.93;21.77;;;2.50;1.00;;;;;;6240166;28;20501;-55
2022/12/02 05:55:53;;;;;;;25.33;20.00;;;2.30;1.00;;;;;;6238509;28;20237;-54
2022/12/02 05:59:02;;;;;;;27.87;19.87;;;2.50;1.00;;;;;;6232573;28;20258;-56
2022/12/02 06:02:21;;;;;;;28.27;21.53;;;2.40;1.00;;;;;;6239495;28;20358;-54
2022/12/02 06:05:25;;;;;;;27.67;21.70;;;2.50;1.00;;;;;;6234250;28;20270;-55
2022/12/02 06:08:33;;;;;;;27.87;21.40;;;2.40;1.00;;;;;;6236788;28;20241;-54
2022/12/02 06:11:43;;;;;;;28.23;21.43;;;2.40;1.00;;;;;;6236295;28;20239;-53
2022/12/02 06:14:52;;;;;;;26.80;21.10;;;2.30;1.00;;;;;;6231833;28;20241;-55
2022/12/02 06:17:55;;;;;;;27.40;20.93;;;2.40;1.00;;;;;;6233153;28;20531;-55
2022/12/02 06:21:01;;;;;;;27.10;21.17;;;2.60;1.00;;;;;;6237311;28;20239;-53
2022/12/02 06:24:10;;;;;;;26.13;20.37;;;2.40;1.00;;;;;;6231076;28;20388;-53
2022/12/02 06:27:15;;;;;;;26.23;20.60;;;2.40;1.00;;;;;;6245218;28;20297;-54
2022/12/02 06:30:19;;;;;;;28.20;20.93;;;2.40;1.00;;;;;;6237908;28;20230;-53
2022/12/02 06:33:26;;;;;;;27.83;20.57;;;2.30;1.00;;;;;;6236273;28;20230;-55
2022/12/02 06:36:31;;;;;;;25.83;21.40;;;2.40;1.00;;;;;;6232085;28;20250;-55
2022/12/02 06:39:34;;;;;;;24.47;20.10;;;2.60;1.00;;;;;;6234566;28;20362;-53
2022/12/02 06:42:39;;;;;;;28.50;21.27;;;2.70;1.00;;;;;;6234474;28;20406;-56
2022/12/02 06:45:45;;;;;;;27.13;21.20;;;2.40;1.00;;;;;;6228935;28;20230;-55
2022/12/02 06:48:50;;;;;;;27.73;20.00;;;2.60;1.00;;;;;;6234471;28;20433;-54
2022/12/02 06:51:56;;;;;;;29.57;21.20;;;2.50;1.00;;;;;;6235954;28;20249;-55
2022/12/02 06:55:00;;;;;;;30.70;21.77;;;2.40;1.00;;;;;;6235134;28;20250;-55
2022/12/02 06:58:17;;;;;;;28.67;20.83;;;2.40;1.00;;;;;;6232377;28;20450;-55
2022/12/02 07:01:29;;;;;;;30.23;20.90;;;2.40;1.00;;;;;;6216010;28;20224;-55
2022/12/02 07:04:38;;;;;;;28.03;21.43;;;2.30;1.00;;;;;;6213507;28;20254;-54
2022/12/02 07:07:41;;;;;;;29.60;21.43;;;2.60;1.00;;;;;;6214509;28;20625;-55
2022/12/02 07:10:44;;;;;;;32.60;22.63;;;2.40;1.00;;;;;;6214215;28;20303;-54
2022/12/02 07:13:49;;;;;;;30.90;21.43;;;2.60;1.00;;;;;;6217963;28;20246;-54
2022/12/02 07:16:55;;;;;;;32.27;23.00;;;2.30;1.00;;;;;;6215042;28;20234;-54
2022/12/02 07:20:01;;;;;;;27.20;21.47;;;2.40;1.00;;;;;;6227511;28;20756;-54
2022/12/02 07:23:14;;;;;;;31.63;22.27;;;2.40;1.00;;;;;;6212086;28;20238;-56
2022/12/02 07:26:19;;;;;;;28.00;21.37;;;2.60;1.00;;;;;;6217720;28;20230;-55
2022/12/02 07:29:29;;;;;;;29.00;21.53;;;2.40;1.00;;;;;;6212249;28;20438;-54
2022/12/02 07:32:33;;;;;;;32.40;21.90;;;2.40;1.00;;;;;;6224689;28;20243;-48
2022/12/02 07:35:36;;;;;;;32.67;23.17;;;2.40;1.00;;;;;;6216592;28;20611;-53
2022/12/02 07:38:39;;;;;;;28.60;20.37;;;2.40;1.00;;;;;;6218635;28;20726;-55
2022/12/02 07:42:02;;;;;;;28.13;20.57;;;2.60;1.00;;;;;;6219405;28;20239;-54
2022/12/02 07:45:06;;;;;;;30.00;22.03;;;2.70;1.00;;;;;;6209853;28;20249;-60
2022/12/02 07:48:11;;;;;;;31.47;22.57;;;2.80;1.00;;;;;;6222957;28;20666;-54
2022/12/02 07:51:14;;;;;;;32.07;21.77;;;2.40;1.00;;;;;;6231254;28;20744;-55
2022/12/02 07:54:17;;;;;;;29.63;20.53;;;2.30;1.00;;;;;;6222618;28;20238;-52
2022/12/02 07:57:20;;;;;;;30.17;21.73;;;2.30;1.00;;;;;;6228573;28;20619;-58
2022/12/02 08:00:24;;;;;;;30.33;21.77;;;2.30;1.00;;;;;;6227765;28;20759;-53
2022/12/02 08:03:28;;;;;;;29.73;21.80;;;2.30;1.00;;;;;;6233907;28;20254;-55
2022/12/02 08:06:31;;;;;;;31.80;20.97;;;2.30;1.00;;;;;;6231219;28;20235;-54
2022/12/02 08:09:41;;;;;;;30.73;21.60;;;2.20;1.00;;;;;;6236790;28;20472;-59
2022/12/02 08:12:44;;;;;;;28.20;21.07;;;2.40;1.00;;;;;;6234409;28;20242;-55
2022/12/02 08:15:47;;;;;;;25.83;20.23;;;2.40;1.00;;;;;;6239262;28;20234;-55
2022/12/02 08:18:57;;;;;;;34.10;21.50;;;2.20;1.00;;;;;;6239329;28;20258;-54
2022/12/02 08:22:00;;;;;;;30.77;21.60;;;2.40;1.00;;;;;;6229238;28;20237;-53
2022/12/02 08:25:04;;;;;;;29.80;20.47;;;2.40;1.00;;;;;;6233159;28;20235;-54
2022/12/02 08:28:07;;;;;;;34.07;21.17;;;2.30;1.00;;;;;;6226239;28;20242;-54
2022/12/02 08:31:10;;;;;;;30.30;20.60;;;2.40;1.00;;;;;;6231102;28;20266;-55
2022/12/02 08:34:14;;;;;;;32.57;21.67;;;2.50;1.00;;;;;;6226448;28;20446;-53
2022/12/02 08:37:17;;;;;;;33.33;21.90;;;2.40;1.00;;;;;;6234343;28;20226;-54
2022/12/02 08:40:20;;;;;;;33.83;21.13;;;2.60;1.00;;;;;;6231979;28;20258;-55
2022/12/02 08:43:23;;;;;;;29.73;20.63;;;2.40;1.00;;;;;;6237771;28;20233;-54
2022/12/02 08:46:26;;;;;;;31.80;20.07;;;2.60;1.00;;;;;;6236832;28;20616;-54
2022/12/02 08:49:31;;;;;;;32.17;20.50;;;2.50;1.00;;;;;;6231078;28;20269;-54
2022/12/02 08:52:34;;;;;;;32.33;20.80;;;2.40;1.00;;;;;;6225751;28;20261;-55
2022/12/02 08:55:37;;;;;;;31.73;21.57;;;2.50;1.00;;;;;;6242567;28;20613;-55
2022/12/02 08:58:40;;;;;;;31.10;21.70;;;2.50;1.00;;;;;;6222409;28;20325;-55
2022/12/02 09:01:43;;;;;;;29.70;20.70;;;2.90;1.00;;;;;;6236276;28;20235;-54
2022/12/02 09:04:47;;;;;;;29.30;20.13;;;2.70;1.00;;;;;;6236830;28;20318;-54
2022/12/02 09:07:51;;;;;;;28.27;20.73;;;2.80;1.00;;;;;;6228254;28;20625;-54
2022/12/02 09:10:54;;;;;;;28.07;20.07;;;2.60;1.00;;;;;;6232676;28;20331;-54
2022/12/02 09:13:57;;;;;;;32.57;22.10;;;2.50;1.00;;;;;;6237056;28;20241;-54
2022/12/02 09:17:00;;;;;;;29.37;21.10;;;2.60;1.00;;;;;;6227446;28;20737;-54
2022/12/02 09:20:05;;;;;;;31.73;20.97;;;2.90;1.00;;;;;;6231706;28;20245;-56
2022/12/02 09:23:08;;;;;;;30.77;20.50;;;2.80;1.00;;;;;;6231274;28;21859;-54
2022/12/02 09:26:11;;;;;;;25.73;19.70;;;3.00;1.00;;;;;;6237438;28;20249;-54
2022/12/02 09:29:14;;;;;;;34.83;23.80;;;3.00;1.00;;;;;;6239402;28;20236;-56
2022/12/02 09:32:17;;;;;;;29.77;21.33;;;2.80;1.00;;;;;;6234481;28;20242;-54
2022/12/02 09:35:21;;;;;;;30.77;21.30;;;3.10;1.00;;;;;;6235970;28;20701;-60
2022/12/02 09:38:24;;;;;;;30.17;22.00;;;3.20;1.00;;;;;;6229332;28;20615;-54
2022/12/02 09:41:27;;;;;;;31.87;21.20;;;3.10;1.00;;;;;;6242179;28;20243;-54
2022/12/02 09:44:31;;;;;;;33.57;22.00;;;2.90;1.00;;;;;;6237152;28;20333;-54
2022/12/02 09:47:35;;;;;;;29.27;21.43;;;3.20;1.00;;;;;;6237931;28;20314;-54
2022/12/02 09:50:40;;;;;;;36.27;22.67;;;3.00;1.00;;;;;;6234658;28;20238;-52
2022/12/02 09:53:43;;;;;;;38.63;22.93;;;2.80;1.00;;;;;;6238959;28;20226;-55
2022/12/02 09:56:46;;;;;;;35.80;22.30;;;2.90;1.00;;;;;;6234137;28;20398;-55
2022/12/02 09:59:49;;;;;;;35.40;23.27;;;3.00;1.00;;;;;;6242066;28;20735;-54
2022/12/02 10:02:54;;;;;;;31.07;22.27;;;2.90;1.00;;;;;;6235324;28;20237;-55
2022/12/02 10:06:00;;;;;;;34.87;22.93;;;2.90;1.00;;;;;;6239111;28;20239;-55
2022/12/02 10:09:03;;;;;;;27.00;20.00;;;2.90;1.00;;;;;;6236448;28;20235;-55
2022/12/02 10:12:09;;;;;;;37.20;23.10;;;3.20;1.00;;;;;;6237065;28;20860;-55
2022/12/02 10:15:14;;;;;;;33.37;22.80;;;3.10;1.00;;;;;;6247341;28;20242;-53
2022/12/02 10:18:19;;;;;;;35.30;21.57;;;3.00;1.00;;;;;;6245518;28;20246;-54
2022/12/02 10:21:23;;;;;;;38.97;22.93;;;3.10;1.00;;;;;;6236271;28;20234;-61
2022/12/02 10:24:37;;;;;;;38.90;23.33;;;2.80;1.00;;;;;;6244586;28;20230;-54
2022/12/02 10:27:40;;;;;;;37.03;22.30;;;3.10;1.00;;;;;;6249648;28;20237;-54
2022/12/02 10:30:49;;;;;;;36.07;22.57;;;3.10;1.00;;;;;;6245721;28;20237;-55
2022/12/02 10:33:54;;;;;;;35.30;22.00;;;3.10;1.00;;;;;;6239132;28;20227;-55
2022/12/02 10:37:16;;;;;;;38.77;24.70;;;3.00;1.00;;;;;;6233468;28;20513;-54
2022/12/02 10:40:21;;;;;;;41.63;23.97;;;3.00;1.00;;;;;;6250737;28;20740;-55
2022/12/02 10:43:24;;;;;;;37.57;23.03;;;2.80;1.00;;;;;;6242312;28;20739;-54
2022/12/02 10:46:28;;;;;;;35.97;23.60;;;3.00;1.00;;;;;;6230728;28;20728;-54
2022/12/02 10:49:34;;;;;;;38.37;22.47;;;2.70;1.00;;;;;;6239242;28;20659;-54
2022/12/02 10:52:44;;;;;;;40.93;24.80;;;3.10;1.00;;;;;;6231408;28;20231;-54
2022/12/02 10:55:47;;;;;;;39.80;24.47;;;2.60;1.00;;;;;;6246850;28;20243;-54
2022/12/02 10:58:51;;;;;;;37.20;23.27;;;2.90;1.00;;;;;;6243753;28;20477;-54
2022/12/02 11:01:55;;;;;;;42.17;25.27;;;2.90;1.00;;;;;;6210529;28;20247;-54
2022/12/02 11:05:01;;;;;;;41.00;26.67;;;2.70;1.00;;;;;;6237801;28;20789;-55
2022/12/02 11:08:15;;;;;;;43.40;25.57;;;2.60;1.00;;;;;;6218646;28;20242;-55
2022/12/02 11:11:38;;;;;;;39.77;24.37;;;2.70;1.00;;;;;;6214819;28;20231;-54
2022/12/02 11:14:55;;;;;;;44.20;26.47;;;2.70;1.00;;;;;;6236207;28;20233;-55
2022/12/02 11:17:58;;;;;;;45.27;27.23;;;2.90;1.00;;;;;;6231029;28;20250;-54
2022/12/02 11:21:32;;;;;;;45.07;25.43;;;2.70;1.00;;;;;;6234071;28;20234;-54
2022/12/02 11:24:37;;;;;;;47.93;27.27;;;2.90;1.00;;;;;;6247890;28;20384;-54
2022/12/02 11:28:13;;;;;;;47.50;27.23;;;2.80;1.00;;;;;;6238857;28;20242;-54
2022/12/02 11:31:26;;;;;;;42.57;26.27;;;2.70;1.00;;;;;;6220193;28;20234;-53
2022/12/02 11:34:44;;;;;;;44.80;27.67;;;2.90;1.00;;;;;;6236952;28;20233;-54
2022/12/02 11:38:20;;;;;;;43.43;26.10;;;2.80;1.00;;;;;;6232239;28;20243;-54
2022/12/02 11:41:27;;;;;;;47.20;26.67;;;2.60;1.00;;;;;;6243471;28;20223;-56
2022/12/02 11:44:30;;;;;;;48.23;28.27;;;2.70;1.00;;;;;;6233233;28;20463;-53
2022/12/02 11:47:34;;;;;;;47.20;28.57;;;2.80;1.00;;;;;;6243146;28;20720;-54
2022/12/02 11:50:39;;;;;;;50.77;27.90;;;2.40;1.00;;;;;;6232178;28;20472;-53
2022/12/02 11:53:51;;;;;;;47.37;28.90;;;2.70;1.00;;;;;;6228263;28;20235;-54
2022/12/02 11:56:56;;;;;;;49.90;28.97;;;2.50;1.00;;;;;;6235093;28;20243;-54
2022/12/02 11:59:59;;;;;;;47.70;28.10;;;2.60;1.00;;;;;;6226391;28;20253;-54
2022/12/02 12:03:07;;;;;;;47.63;27.70;;;2.60;1.00;;;;;;6237406;28;20612;-54
2022/12/02 12:06:12;;;;;;;45.77;27.87;;;2.40;1.00;;;;;;6230200;28;20227;-54
2022/12/02 12:09:18;;;;;;;47.63;27.87;;;2.40;1.00;;;;;;6205212;28;20726;-58
2022/12/02 12:12:23;;;;;;;55.00;29.07;;;2.60;1.00;;;;;;6215652;28;20259;-54
2022/12/02 12:15:50;;;;;;;49.17;27.13;;;2.50;1.00;;;;;;6201369;28;20365;-53
2022/12/02 12:18:54;;;;;;;47.20;28.13;;;2.40;1.00;;;;;;6195241;28;20387;-54
2022/12/02 12:22:24;;;;;;;44.47;26.73;;;2.40;1.00;;;;;;6205999;28;20335;-54
2022/12/02 12:25:38;;;;;;;51.13;28.13;;;2.30;1.00;;;;;;6223309;28;20223;-61
2022/12/02 12:28:41;;;;;;;49.43;27.97;;;2.50;1.00;;;;;;6206649;28;20394;-53
2022/12/02 12:31:44;;;;;;;51.90;29.10;;;2.40;1.00;;;;;;6208410;28;20232;-53
2022/12/02 12:34:47;;;;;;;55.83;29.67;;;2.40;1.00;;;;;;6214588;28;20713;-54
2022/12/02 12:37:50;;;;;;;50.87;28.13;;;2.60;1.00;;;;;;6237352;28;20750;-54
2022/12/02 12:40:54;;;;;;;55.93;31.53;;;2.30;1.00;;;;;;6240515;28;20234;-54
2022/12/02 12:43:57;;;;;;;53.03;29.10;;;2.70;1.00;;;;;;6234677;28;20243;-54
2022/12/02 12:47:02;;;;;;;50.60;28.40;;;2.40;1.00;;;;;;6222816;28;20257;-54
2022/12/02 12:50:07;;;;;;;51.33;28.60;;;2.40;1.00;;;;;;6230084;28;20235;-54
2022/12/02 12:53:10;;;;;;;50.30;29.17;;;2.40;1.00;;;;;;6235381;28;20242;-53
2022/12/02 12:56:14;;;;;;;48.77;29.00;;;2.40;1.00;;;;;;6242892;28;20383;-53
2022/12/02 12:59:17;;;;;;;49.90;26.80;;;2.60;1.00;;;;;;6227888;28;20689;-53
2022/12/02 13:02:20;;;;;;;48.27;29.00;;;2.60;1.00;;;;;;6228812;28;20237;-53
2022/12/02 13:05:23;;;;;;;49.87;27.57;;;2.20;1.00;;;;;;6229934;28;20226;-52
2022/12/02 13:08:27;;;;;;;50.93;28.73;;;2.20;1.00;;;;;;6238309;28;20740;-57
2022/12/02 13:11:31;;;;;;;48.23;28.30;;;2.50;1.00;;;;;;6250101;28;20230;-54
2022/12/02 13:14:34;;;;;;;46.83;28.27;;;2.40;1.00;;;;;;6237002;28;20246;-56
2022/12/02 13:17:37;;;;;;;48.57;27.17;;;2.30;1.00;;;;;;6245552;28;20293;-53
2022/12/02 13:20:42;;;;;;;48.63;28.20;;;2.20;1.00;;;;;;6244981;28;20246;-54
2022/12/02 13:23:44;;;;;;;48.30;27.27;;;2.50;1.00;;;;;;6208345;28;20478;-53
2022/12/02 13:26:49;;;;;;;41.70;25.03;;;2.20;1.00;;;;;;6236383;28;20238;-56
2022/12/02 13:29:52;;;;;;;47.03;26.67;;;2.20;1.00;;;;;;6244398;28;20249;-54
2022/12/02 13:32:55;;;;;;;50.67;28.07;;;2.40;1.00;;;;;;6233560;28;20705;-54
2022/12/02 13:35:58;;;;;;;42.43;26.40;;;2.30;1.00;;;;;;6231676;28;20636;-54
2022/12/02 13:39:01;;;;;;;46.27;26.57;;;2.50;1.00;;;;;;6250266;28;20245;-54
2022/12/02 13:42:09;;;;;;;47.63;28.27;;;2.20;1.00;;;;;;6248068;28;20239;-54
2022/12/02 13:45:13;;;;;;;52.27;29.07;;;2.30;1.00;;;;;;6244237;28;20234;-55
2022/12/02 13:48:16;;;;;;;47.70;28.50;;;2.20;1.00;;;;;;6246648;28;20499;-54
2022/12/02 13:51:19;;;;;;;47.23;28.60;;;2.00;1.00;;;;;;6242942;28;20230;-56
2022/12/02 13:54:22;;;;;;;49.27;28.90;;;2.30;1.00;;;;;;6242725;28;20231;-54
2022/12/02 13:57:26;;;;;;;49.93;27.57;;;2.10;1.00;;;;;;6242607;28;20230;-54
2022/12/02 14:00:29;;;;;;;50.67;27.10;;;2.20;1.00;;;;;;6239573;28;20245;-54
2022/12/02 14:03:32;;;;;;;51.43;28.40;;;2.10;1.00;;;;;;6236154;28;20944;-52
2022/12/02 14:06:35;;;;;;;58.13;28.60;;;2.20;1.00;;;;;;6234290;28;20384;-52
2022/12/02 14:09:38;;;;;;;49.57;26.23;;;1.90;1.00;;;;;;6230531;28;20234;-55
2022/12/02 14:12:43;;;;;;;47.60;26.07;;;1.80;1.00;;;;;;6247843;28;20246;-53
2022/12/02 14:15:46;;;;;;;45.80;25.57;;;2.00;1.00;;;;;;6242828;28;20655;-54
2022/12/02 14:18:49;;;;;;;53.50;28.60;;;1.90;1.00;;;;;;6243056;28;20251;-54
2022/12/02 14:21:59;;;;;;;45.30;27.17;;;1.80;1.00;;;;;;6217076;28;20349;-55
2022/12/02 14:25:02;;;;;;;47.33;27.40;;;1.80;1.00;;;;;;6213719;28;20246;-55
2022/12/02 14:28:07;;;;;;;51.70;29.73;;;1.60;1.00;;;;;;6219320;28;20724;-54
2022/12/02 14:31:10;;;;;;;51.43;28.43;;;1.70;1.00;;;;;;6237385;28;20243;-53
2022/12/02 14:34:27;;;;;;;49.97;28.80;;;1.80;1.00;;;;;;6235610;28;20694;-55
2022/12/02 14:37:30;;;;;;;48.43;28.00;;;1.70;1.00;;;;;;6242011;28;20241;-55
2022/12/02 14:40:33;;;;;;;53.67;30.73;;;1.90;1.00;;;;;;6240490;28;20430;-55
2022/12/02 14:43:37;;;;;;;51.20;28.67;;;1.70;1.00;;;;;;6238506;28;20237;-55
2022/12/02 14:46:45;;;;;;;54.17;28.83;;;1.60;1.00;;;;;;6252436;28;20241;-55
2022/12/02 14:49:48;;;;;;;49.00;27.63;;;1.90;1.00;;;;;;6241543;28;20461;-53
2022/12/02 14:52:51;;;;;;;50.40;27.37;;;1.70;1.00;;;;;;6237667;28;20618;-55
2022/12/02 14:55:54;;;;;;;53.03;29.13;;;1.70;1.00;;;;;;6231449;28;20238;-54
2022/12/02 14:58:59;;;;;;;51.67;30.90;;;1.70;1.00;;;;;;6234548;28;20246;-53
2022/12/02 15:02:02;;;;;;;50.67;28.47;;;1.50;1.00;;;;;;6229727;28;20611;-54
2022/12/02 15:05:06;;;;;;;53.50;29.73;;;1.60;1.00;;;;;;6237411;28;20762;-53
2022/12/02 15:08:16;;;;;;;47.10;29.17;;;1.60;1.00;;;;;;6249259;28;20340;-54
2022/12/02 15:11:19;;;;;;;50.17;29.20;;;1.70;1.00;;;;;;6218652;28;20546;-53
2022/12/02 15:14:23;;;;;;;49.77;29.07;;;1.80;1.00;;;;;;6228831;28;20230;-52
2022/12/02 15:17:26;;;;;;;51.67;29.63;;;1.70;1.00;;;;;;6243603;28;20235;-54
2022/12/02 15:20:29;;;;;;;44.27;27.57;;;1.40;1.00;;;;;;6237293;28;20433;-54
2022/12/02 15:23:32;;;;;;;47.63;28.33;;;1.30;1.00;;;;;;6236837;28;20231;-60
2022/12/02 15:26:35;;;;;;;47.80;27.87;;;1.40;1.00;;;;;;6254250;28;20241;-54
2022/12/02 15:29:40;;;;;;;44.40;27.77;;;1.20;1.00;;;;;;6247416;28;20233;-55
2022/12/02 15:32:44;;;;;;;43.27;26.27;;;1.60;1.00;;;;;;6242313;28;20508;-55
2022/12/02 15:35:47;;;;;;;41.40;26.80;;;1.50;1.00;;;;;;6231941;28;20238;-55
2022/12/02 15:38:50;;;;;;;42.27;26.20;;;1.50;1.00;;;;;;6244135;28;20234;-53
2022/12/02 15:41:53;;;;;;;42.97;27.30;;;1.30;1.00;;;;;;6232261;28;20231;-55
2022/12/02 15:44:58;;;;;;;37.43;25.10;;;1.30;1.00;;;;;;6237005;28;20465;-54
2022/12/02 15:48:01;;;;;;;46.90;25.90;;;1.30;1.00;;;;;;6235223;28;20253;-55
2022/12/02 15:51:04;;;;;;;43.17;26.20;;;1.30;1.00;;;;;;6233626;28;20712;-54
2022/12/02 15:54:07;;;;;;;46.07;26.57;;;1.40;1.00;;;;;;6228246;28;20753;-55
2022/12/02 15:57:10;;;;;;;42.23;26.20;;;1.50;1.00;;;;;;6226603;28;20243;-54
2022/12/02 16:00:15;;;;;;;44.43;26.97;;;1.30;1.00;;;;;;6232772;28;20347;-54
2022/12/02 16:03:18;;;;;;;38.50;25.63;;;1.30;1.00;;;;;;6234361;28;20246;-55
2022/12/02 16:06:21;;;;;;;43.67;25.90;;;1.20;1.00;;;;;;6241224;28;20234;-55